createdAt,value
2022-09-23T00:00:41.307Z,0.00
2022-09-23T00:01:41.340Z,0.00
2022-09-23T00:02:41.438Z,0.00
2022-09-23T00:03:41.265Z,0.00
2022-09-23T00:04:41.253Z,0.00
2022-09-23T00:05:41.239Z,0.00
2022-09-23T00:07:41.213Z,0.00
2022-09-23T00:08:41.199Z,0.00
2022-09-23T00:09:41.186Z,0.00
2022-09-23T00:10:41.174Z,0.00
2022-09-23T00:11:41.159Z,0.00
2022-09-23T00:12:41.147Z,0.00
2022-09-23T00:13:41.134Z,0.00
2022-09-23T00:14:41.145Z,0.00
2022-09-23T00:15:41.112Z,0.00
2022-09-23T00:16:41.187Z,0.00
2022-09-23T00:18:41.068Z,0.00
2022-09-23T00:19:41.057Z,0.00
2022-09-23T00:20:41.042Z,0.00
2022-09-23T00:21:41.028Z,0.00
2022-09-23T00:22:41.018Z,0.00
2022-09-23T00:23:41.005Z,0.00
2022-09-23T00:24:40.997Z,0.00
2022-09-23T00:25:40.978Z,0.00
2022-09-23T00:26:40.967Z,0.00
2022-09-23T00:27:40.947Z,0.00
2022-09-23T00:29:40.921Z,0.00
2022-09-23T00:30:40.975Z,0.00
2022-09-23T00:31:40.894Z,0.00
2022-09-23T00:32:40.883Z,0.00
2022-09-23T00:33:40.867Z,0.00
2022-09-23T00:34:40.863Z,0.00
2022-09-23T00:35:40.845Z,0.00
2022-09-23T00:36:40.829Z,0.00
2022-09-23T00:37:40.813Z,0.00
2022-09-23T00:38:40.802Z,0.00
2022-09-23T00:40:40.832Z,0.00
2022-09-23T00:41:40.759Z,0.00
2022-09-23T00:42:40.749Z,0.00
2022-09-23T00:43:40.732Z,0.00
2022-09-23T00:44:40.721Z,0.00
2022-09-23T00:45:40.749Z,0.00
2022-09-23T00:46:40.719Z,0.00
2022-09-23T00:47:40.680Z,0.00
2022-09-23T00:48:40.667Z,0.00
2022-09-23T00:49:40.654Z,0.00
2022-09-23T00:51:40.629Z,0.00
2022-09-23T00:52:40.615Z,0.00
2022-09-23T00:53:40.600Z,0.00
2022-09-23T00:54:40.589Z,0.00
2022-09-23T00:55:40.576Z,0.00
2022-09-23T00:56:40.562Z,0.00
2022-09-23T00:57:40.547Z,0.00
2022-09-23T00:58:40.537Z,0.00
2022-09-23T00:59:40.520Z,0.00
2022-09-23T01:00:40.508Z,0.00
2022-09-23T01:02:40.574Z,0.00
2022-09-23T01:03:40.468Z,0.00
2022-09-23T01:04:40.456Z,0.00
2022-09-23T01:05:40.441Z,0.00
2022-09-23T01:06:40.429Z,0.00
2022-09-23T01:07:40.414Z,0.00
2022-09-23T01:08:40.403Z,0.00
2022-09-23T01:09:40.387Z,0.00
2022-09-23T01:10:40.376Z,0.00
2022-09-23T01:11:40.361Z,0.00
2022-09-23T01:13:40.334Z,0.00
2022-09-23T01:14:40.322Z,0.00
2022-09-23T01:15:40.309Z,0.00
2022-09-23T01:16:40.357Z,0.00
2022-09-23T01:17:40.282Z,0.00
2022-09-23T01:18:40.292Z,0.00
2022-09-23T01:19:40.254Z,0.00
2022-09-23T01:20:40.243Z,0.00
2022-09-23T01:21:40.229Z,0.00
2022-09-23T01:22:40.215Z,0.00
2022-09-23T01:24:40.191Z,0.00
2022-09-23T01:25:40.175Z,0.00
2022-09-23T01:26:40.164Z,0.00
2022-09-23T01:27:40.148Z,0.00
2022-09-23T01:28:40.137Z,0.00
2022-09-23T01:29:40.122Z,0.00
2022-09-23T01:30:40.215Z,0.00
2022-09-23T01:31:40.096Z,0.00
2022-09-23T01:32:40.086Z,0.00
2022-09-23T01:33:40.072Z,0.00
2022-09-23T01:35:40.046Z,0.00
2022-09-23T01:36:40.036Z,0.00
2022-09-23T01:37:40.021Z,0.00
2022-09-23T01:38:40.011Z,0.00
2022-09-23T01:39:39.999Z,0.00
2022-09-23T01:40:40.065Z,0.00
2022-09-23T01:41:39.972Z,0.00
2022-09-23T01:42:39.961Z,0.00
2022-09-23T01:43:39.948Z,0.00
2022-09-23T01:44:39.935Z,0.00
2022-09-23T01:46:39.910Z,0.00
2022-09-23T01:47:39.896Z,0.00
2022-09-23T01:48:39.944Z,0.00
2022-09-23T01:49:39.875Z,0.00
2022-09-23T01:50:39.881Z,0.00
2022-09-23T01:51:39.844Z,0.00
2022-09-23T01:52:39.833Z,0.00
2022-09-23T01:53:39.821Z,0.00
2022-09-23T01:54:39.809Z,0.00
2022-09-23T01:55:39.803Z,0.00
2022-09-23T01:57:39.770Z,0.00
2022-09-23T01:58:39.761Z,0.00
2022-09-23T01:59:39.745Z,0.00
2022-09-23T02:00:39.734Z,0.00
2022-09-23T02:01:39.763Z,0.00
2022-09-23T02:02:39.731Z,0.00
2022-09-23T02:03:39.699Z,0.00
2022-09-23T02:04:39.709Z,0.00
2022-09-23T02:05:39.675Z,0.00
2022-09-23T02:06:39.684Z,0.00
2022-09-23T02:08:39.640Z,0.00
2022-09-23T02:09:39.619Z,0.00
2022-09-23T02:10:39.609Z,0.00
2022-09-23T02:11:39.593Z,0.00
2022-09-23T02:12:39.581Z,0.00
2022-09-23T02:13:39.566Z,0.00
2022-09-23T02:14:39.554Z,0.00
2022-09-23T02:15:39.541Z,0.00
2022-09-23T02:16:39.642Z,0.00
2022-09-23T02:17:39.519Z,0.00
2022-09-23T02:19:39.489Z,0.00
2022-09-23T02:20:39.477Z,0.00
2022-09-23T02:21:39.461Z,0.00
2022-09-23T02:22:39.474Z,0.00
2022-09-23T02:23:39.436Z,0.00
2022-09-23T02:24:39.423Z,0.00
2022-09-23T02:25:39.409Z,0.00
2022-09-23T02:26:39.398Z,0.00
2022-09-23T02:27:39.383Z,0.00
2022-09-23T02:28:39.372Z,0.00
2022-09-23T02:30:39.347Z,0.00
2022-09-23T02:31:39.353Z,0.00
2022-09-23T02:32:39.322Z,0.00
2022-09-23T02:33:39.305Z,0.00
2022-09-23T02:34:39.295Z,0.00
2022-09-23T02:35:39.286Z,0.00
2022-09-23T02:36:39.268Z,0.00
2022-09-23T02:37:39.251Z,0.00
2022-09-23T02:38:39.276Z,0.00
2022-09-23T02:39:39.233Z,0.00
2022-09-23T02:41:39.204Z,0.00
2022-09-23T02:42:39.212Z,0.00
2022-09-23T02:43:39.178Z,0.00
2022-09-23T02:44:39.166Z,0.00
2022-09-23T02:45:39.291Z,0.00
2022-09-23T02:46:39.145Z,0.00
2022-09-23T02:47:39.125Z,0.00
2022-09-23T02:48:39.115Z,0.00
2022-09-23T02:49:39.101Z,0.00
2022-09-23T02:50:39.089Z,0.00
2022-09-23T02:52:39.069Z,0.00
2022-09-23T02:53:39.053Z,0.00
2022-09-23T02:54:39.066Z,0.00
2022-09-23T02:55:39.030Z,0.00
2022-09-23T02:56:39.019Z,0.00
2022-09-23T02:57:39.010Z,0.00
2022-09-23T02:58:38.994Z,0.00
2022-09-23T02:59:38.980Z,0.00
2022-09-23T03:00:38.969Z,0.00
2022-09-23T03:01:38.999Z,0.00
2022-09-23T03:03:38.931Z,0.00
2022-09-23T03:04:38.921Z,0.00
2022-09-23T03:05:38.908Z,0.00
2022-09-23T03:06:38.896Z,0.00
2022-09-23T03:07:38.882Z,0.00
2022-09-23T03:08:38.871Z,0.00
2022-09-23T03:09:38.862Z,0.00
2022-09-23T03:10:38.873Z,0.00
2022-09-23T03:11:38.834Z,0.00
2022-09-23T03:12:38.821Z,0.00
2022-09-23T03:14:38.797Z,0.00
2022-09-23T03:15:38.782Z,0.00
2022-09-23T03:16:38.867Z,0.00
2022-09-23T03:17:38.758Z,0.00
2022-09-23T03:18:38.747Z,0.00
2022-09-23T03:19:38.738Z,0.00
2022-09-23T03:20:38.723Z,0.00
2022-09-23T03:21:38.719Z,0.00
2022-09-23T03:22:38.696Z,0.00
2022-09-23T03:23:38.685Z,0.00
2022-09-23T03:25:38.662Z,0.00
2022-09-23T03:26:38.673Z,0.00
2022-09-23T03:27:38.638Z,0.00
2022-09-23T03:28:38.623Z,0.00
2022-09-23T03:29:38.611Z,0.00
2022-09-23T03:30:38.596Z,0.00
2022-09-23T03:31:38.702Z,0.00
2022-09-23T03:32:38.572Z,0.00
2022-09-23T03:33:38.564Z,0.00
2022-09-23T03:34:38.551Z,0.00
2022-09-23T03:36:38.522Z,0.00
2022-09-23T03:37:38.510Z,0.00
2022-09-23T03:38:38.497Z,0.00
2022-09-23T03:39:38.487Z,0.00
2022-09-23T03:40:38.534Z,0.00
2022-09-23T03:41:38.461Z,0.00
2022-09-23T03:42:38.472Z,0.00
2022-09-23T03:43:39.061Z,0.00
2022-09-23T03:44:38.424Z,0.00
2022-09-23T03:45:38.624Z,0.00
2022-09-23T03:47:38.386Z,0.00
2022-09-23T03:48:38.373Z,0.00
2022-09-23T03:49:38.362Z,0.00
2022-09-23T03:50:38.350Z,0.00
2022-09-23T03:51:41.548Z,0.00
2022-09-23T03:52:38.324Z,0.00
2022-09-23T03:53:38.311Z,0.00
2022-09-23T03:54:38.300Z,0.00
2022-09-23T03:55:38.287Z,0.00
2022-09-23T03:56:38.273Z,0.00
2022-09-23T03:58:38.270Z,0.00
2022-09-23T03:59:38.236Z,0.00
2022-09-23T04:00:38.234Z,0.00
2022-09-23T04:01:38.271Z,0.00
2022-09-23T04:02:38.198Z,0.00
2022-09-23T04:03:38.187Z,0.00
2022-09-23T04:04:38.169Z,0.00
2022-09-23T04:05:38.159Z,0.00
2022-09-23T04:06:38.145Z,0.00
2022-09-23T04:07:38.146Z,0.00
2022-09-23T04:09:38.107Z,0.00
2022-09-23T04:10:38.092Z,0.00
2022-09-23T04:11:38.079Z,0.00
2022-09-23T04:12:38.064Z,0.00
2022-09-23T04:13:38.053Z,0.00
2022-09-23T04:14:38.064Z,0.00
2022-09-23T04:15:38.026Z,0.00
2022-09-23T04:16:38.093Z,0.00
2022-09-23T04:17:37.999Z,0.00
2022-09-23T04:18:37.985Z,0.00
2022-09-23T04:20:38.008Z,0.00
2022-09-23T04:21:37.948Z,0.00
2022-09-23T04:22:37.932Z,0.00
2022-09-23T04:23:37.919Z,0.00
2022-09-23T04:24:37.905Z,0.00
2022-09-23T04:25:37.894Z,0.00
2022-09-23T04:26:37.880Z,0.00
2022-09-23T04:27:38.186Z,0.00
2022-09-23T04:28:37.856Z,0.00
2022-09-23T04:29:37.842Z,0.00
2022-09-23T04:31:37.862Z,0.00
2022-09-23T04:32:37.801Z,0.00
2022-09-23T04:33:37.789Z,0.00
2022-09-23T04:34:37.775Z,0.00
2022-09-23T04:35:40.193Z,0.00
2022-09-23T04:36:37.751Z,0.00
2022-09-23T04:37:37.738Z,0.00
2022-09-23T04:38:37.722Z,0.00
2022-09-23T04:39:37.710Z,0.00
2022-09-23T04:40:37.798Z,0.00
2022-09-23T04:42:37.667Z,0.00
2022-09-23T04:43:37.658Z,0.00
2022-09-23T04:44:37.640Z,4.00
2022-09-23T04:45:37.630Z,4.00
2022-09-23T04:46:37.694Z,4.00
2022-09-23T04:47:37.602Z,0.00
2022-09-23T04:48:37.588Z,4.00
2022-09-23T04:49:37.576Z,4.00
2022-09-23T04:50:37.561Z,8.00
2022-09-23T04:51:37.555Z,4.00
2022-09-23T04:53:37.524Z,8.00
2022-09-23T04:54:37.509Z,8.00
2022-09-23T04:55:37.497Z,16.00
2022-09-23T04:56:37.486Z,16.00
2022-09-23T04:57:37.470Z,20.00
2022-09-23T04:58:37.456Z,24.00
2022-09-23T04:59:37.446Z,28.00
2022-09-23T05:00:37.524Z,36.00
2022-09-23T05:01:37.570Z,40.00
2022-09-23T05:02:37.492Z,48.00
2022-09-23T05:04:37.376Z,64.00
2022-09-23T05:05:37.364Z,76.00
2022-09-23T05:06:37.354Z,88.00
2022-09-23T05:07:37.337Z,104.00
2022-09-23T05:08:37.325Z,116.00
2022-09-23T05:09:37.313Z,128.00
2022-09-23T05:10:37.297Z,140.00
2022-09-23T05:11:37.301Z,152.00
2022-09-23T05:12:37.283Z,168.00
2022-09-23T05:13:37.258Z,180.00
2022-09-23T05:15:37.241Z,220.00
2022-09-23T05:16:37.347Z,248.00
2022-09-23T05:17:37.268Z,276.00
2022-09-23T05:18:37.226Z,304.00
2022-09-23T05:19:37.183Z,336.00
2022-09-23T05:20:37.162Z,364.00
2022-09-23T05:21:37.151Z,400.00
2022-09-23T05:22:37.135Z,428.00
2022-09-23T05:23:37.124Z,460.00
2022-09-23T05:24:37.110Z,500.00
2022-09-23T05:26:37.084Z,572.00
2022-09-23T05:27:37.072Z,604.00
2022-09-23T05:28:37.057Z,644.00
2022-09-23T05:29:37.044Z,688.00
2022-09-23T05:30:37.034Z,740.00
2022-09-23T05:31:37.038Z,792.00
2022-09-23T05:32:37.005Z,840.00
2022-09-23T05:33:36.991Z,892.00
2022-09-23T05:34:37.001Z,952.00
2022-09-23T05:35:36.966Z,1016.00
2022-09-23T05:37:36.938Z,1120.00
2022-09-23T05:38:36.925Z,1160.00
2022-09-23T05:39:36.912Z,1204.00
2022-09-23T05:40:36.935Z,1252.00
2022-09-23T05:41:36.887Z,1300.00
2022-09-23T05:42:36.871Z,1356.00
2022-09-23T05:43:36.859Z,1416.00
2022-09-23T05:44:36.845Z,1492.00
2022-09-23T05:45:36.833Z,1576.00
2022-09-23T05:46:36.876Z,1656.00
2022-09-23T05:48:36.791Z,1816.00
2022-09-23T05:49:58.138Z,1864.00
2022-09-23T05:50:36.790Z,1912.00
2022-09-23T05:51:36.753Z,1968.00
2022-09-23T05:52:36.743Z,2020.00
2022-09-23T05:53:36.726Z,2068.00
2022-09-23T05:54:36.711Z,2124.00
2022-09-23T05:55:36.700Z,2188.00
2022-09-23T05:56:36.687Z,2260.00
2022-09-23T05:57:36.673Z,2336.00
2022-09-23T05:59:36.648Z,2500.00
2022-09-23T06:00:36.643Z,2588.00
2022-09-23T06:01:36.804Z,2672.00
2022-09-23T06:02:36.688Z,2752.00
2022-09-23T06:03:36.602Z,2836.00
2022-09-23T06:04:36.580Z,2920.00
2022-09-23T06:05:36.567Z,3008.00
2022-09-23T06:06:36.576Z,3100.00
2022-09-23T06:07:36.541Z,3188.00
2022-09-23T06:08:36.526Z,3272.00
2022-09-23T06:10:36.501Z,3448.00
2022-09-23T06:11:36.491Z,3560.00
2022-09-23T06:12:36.475Z,3716.00
2022-09-23T06:13:36.467Z,3828.00
2022-09-23T06:14:36.452Z,3880.00
2022-09-23T06:15:36.440Z,3968.00
2022-09-23T06:16:36.494Z,4140.00
2022-09-23T06:17:36.414Z,4384.00
2022-09-23T06:18:36.400Z,4564.00
2022-09-23T06:19:36.391Z,4648.00
2022-09-23T06:21:36.373Z,4664.00
2022-09-23T06:22:39.075Z,4676.00
2022-09-23T06:23:39.898Z,4712.00
2022-09-23T06:24:36.325Z,4748.00
2022-09-23T06:25:36.313Z,4804.00
2022-09-23T06:26:36.297Z,4884.00
2022-09-23T06:27:36.287Z,5008.00
2022-09-23T06:28:36.273Z,5168.00
2022-09-23T06:29:36.262Z,5352.00
2022-09-23T06:30:36.250Z,5548.00
2022-09-23T06:32:36.223Z,6224.00
2022-09-23T06:33:37.360Z,6372.00
2022-09-23T06:34:48.041Z,6724.00
2022-09-23T06:35:38.184Z,7680.00
2022-09-23T06:36:43.317Z,8620.00
2022-09-23T06:37:36.158Z,9220.00
2022-09-23T06:38:36.167Z,8972.00
2022-09-23T06:39:36.131Z,8932.00
2022-09-23T06:40:36.143Z,8912.00
2022-09-23T06:41:36.107Z,9200.00
2022-09-23T06:43:36.081Z,10784.00
2022-09-23T06:44:36.068Z,11384.00
2022-09-23T06:45:36.058Z,12460.00
2022-09-23T06:46:36.106Z,10288.00
2022-09-23T06:47:36.031Z,10540.00
2022-09-23T06:48:36.019Z,13360.00
2022-09-23T06:49:36.008Z,14592.00
2022-09-23T06:50:36.000Z,15712.00
2022-09-23T06:51:35.981Z,15712.00
2022-09-23T06:52:35.968Z,17504.00
2022-09-23T06:54:36.013Z,21024.00
2022-09-23T06:55:35.931Z,22144.00
2022-09-23T06:56:39.019Z,20992.00
2022-09-23T06:57:35.902Z,20544.00
2022-09-23T06:58:35.890Z,18720.00
2022-09-23T06:59:35.875Z,19232.00
2022-09-23T07:00:35.862Z,19680.00
2022-09-23T07:01:36.063Z,20512.00
2022-09-23T07:02:36.012Z,20800.00
2022-09-23T07:03:35.823Z,20800.00
2022-09-23T07:05:35.800Z,25824.00
2022-09-23T07:06:35.792Z,28576.00
2022-09-23T07:07:35.772Z,30848.00
2022-09-23T07:08:35.759Z,29856.00
2022-09-23T07:09:35.746Z,34592.00
2022-09-23T07:10:35.756Z,36480.00
2022-09-23T07:11:35.720Z,35840.00
2022-09-23T07:12:35.708Z,29856.00
2022-09-23T07:13:35.695Z,28480.00
2022-09-23T07:14:35.679Z,30336.00
2022-09-23T07:16:35.653Z,30080.00
2022-09-23T07:17:35.643Z,32992.00
2022-09-23T07:18:36.909Z,31200.00
2022-09-23T07:19:35.616Z,28576.00
2022-09-23T07:20:35.602Z,26528.00
2022-09-23T07:21:35.590Z,26336.00
2022-09-23T07:22:35.576Z,27456.00
2022-09-23T07:23:35.564Z,29056.00
2022-09-23T07:24:35.549Z,27904.00
2022-09-23T07:25:35.538Z,28320.00
2022-09-23T07:27:35.514Z,32928.00
2022-09-23T07:28:35.499Z,40608.00
2022-09-23T07:29:47.182Z,33984.00
2022-09-23T07:30:37.670Z,24512.00
2022-09-23T07:31:39.828Z,31872.00
2022-09-23T07:32:44.798Z,57408.00
2022-09-23T07:33:35.497Z,102880.00
2022-09-23T07:34:35.419Z,45504.00
2022-09-23T07:35:35.408Z,46816.00
2022-09-23T07:36:35.394Z,50912.00
2022-09-23T07:38:35.370Z,55488.00
2022-09-23T07:39:35.356Z,58720.00
2022-09-23T07:40:35.416Z,62880.00
2022-09-23T07:41:35.331Z,63616.00
2022-09-23T07:42:35.356Z,61696.00
2022-09-23T07:43:35.303Z,58944.00
2022-09-23T07:44:35.292Z,56032.00
2022-09-23T07:45:35.278Z,57184.00
2022-09-23T07:46:35.345Z,62624.00
2022-09-23T07:47:35.253Z,66048.00
2022-09-23T07:49:35.228Z,62432.00
2022-09-23T07:50:35.216Z,63392.00
2022-09-23T07:51:36.639Z,66144.00
2022-09-23T07:52:35.191Z,66816.00
2022-09-23T07:53:35.175Z,65664.00
2022-09-23T07:54:35.165Z,67072.00
2022-09-23T07:55:35.149Z,67776.00
2022-09-23T07:56:35.140Z,66368.00
2022-09-23T07:57:35.126Z,62144.00
2022-09-23T07:58:35.152Z,61024.00
2022-09-23T08:00:35.090Z,65280.00
2022-09-23T08:01:35.117Z,68992.00
2022-09-23T08:02:35.110Z,73120.00
2022-09-23T08:03:35.056Z,70432.00
2022-09-23T08:04:35.040Z,65568.00
2022-09-23T08:05:35.025Z,61824.00
2022-09-23T08:06:35.016Z,60832.00
2022-09-23T08:07:35.004Z,65248.00
2022-09-23T08:08:34.993Z,67968.00
2022-09-23T08:09:34.976Z,67936.00
2022-09-23T08:11:34.952Z,66240.00
2022-09-23T08:12:34.944Z,68512.00
2022-09-23T08:13:34.926Z,69856.00
2022-09-23T08:14:34.979Z,71680.00
2022-09-23T08:15:35.069Z,66272.00
2022-09-23T08:16:34.894Z,60960.00
2022-09-23T08:17:34.878Z,60416.00
2022-09-23T08:18:34.867Z,57120.00
2022-09-23T08:19:34.853Z,55360.00
2022-09-23T08:20:34.842Z,51552.00
2022-09-23T08:22:34.818Z,44384.00
2022-09-23T08:23:34.807Z,45792.00
2022-09-23T08:24:34.792Z,44928.00
2022-09-23T08:25:34.925Z,46688.00
2022-09-23T08:26:34.769Z,49408.00
2022-09-23T08:27:34.755Z,51008.00
2022-09-23T08:28:34.746Z,52224.00
2022-09-23T08:29:34.737Z,52544.00
2022-09-23T08:30:34.744Z,54432.00
2022-09-23T08:31:34.719Z,54752.00
2022-09-23T08:33:34.681Z,55392.00
2022-09-23T08:34:34.672Z,56384.00
2022-09-23T08:35:34.656Z,54784.00
2022-09-23T08:36:34.646Z,51104.00
2022-09-23T08:37:34.630Z,54400.00
2022-09-23T08:38:34.639Z,45728.00
2022-09-23T08:39:34.606Z,50240.00
2022-09-23T08:40:34.650Z,47456.00
2022-09-23T08:41:34.588Z,49088.00
2022-09-23T08:42:34.573Z,57824.00
2022-09-23T08:44:34.545Z,67488.00
2022-09-23T08:45:34.536Z,65312.00
2022-09-23T08:46:34.605Z,58912.00
2022-09-23T08:47:34.507Z,56256.00
2022-09-23T08:48:34.498Z,57632.00
2022-09-23T08:49:34.482Z,62720.00
2022-09-23T08:50:34.471Z,68096.00
2022-09-23T08:51:34.455Z,67616.00
2022-09-23T08:52:34.447Z,68992.00
2022-09-23T08:53:34.430Z,71872.00
2022-09-23T08:55:34.409Z,63936.00
2022-09-23T08:56:35.457Z,67072.00
2022-09-23T08:57:34.383Z,70112.00
2022-09-23T08:58:34.376Z,70976.00
2022-09-23T08:59:34.358Z,62880.00
2022-09-23T09:00:34.347Z,67456.00
2022-09-23T09:01:34.432Z,66208.00
2022-09-23T09:02:34.417Z,64608.00
2022-09-23T09:03:34.307Z,64448.00
2022-09-23T09:04:34.296Z,70816.00
2022-09-23T09:06:41.915Z,76320.00
2022-09-23T09:07:37.122Z,72800.00
2022-09-23T09:08:34.247Z,73696.00
2022-09-23T09:09:34.234Z,62464.00
2022-09-23T09:10:34.224Z,72640.00
2022-09-23T09:11:34.208Z,72896.00
2022-09-23T09:12:34.198Z,67616.00
2022-09-23T09:13:34.184Z,70080.00
2022-09-23T09:14:34.175Z,70688.00
2022-09-23T09:15:34.200Z,70464.00
2022-09-23T09:17:35.117Z,73120.00
2022-09-23T09:18:34.209Z,75264.00
2022-09-23T09:19:34.109Z,71072.00
2022-09-23T09:20:34.100Z,69728.00
2022-09-23T09:21:34.086Z,70816.00
2022-09-23T09:22:34.076Z,76256.00
2022-09-23T09:23:34.061Z,73088.00
2022-09-23T09:24:34.050Z,73184.00
2022-09-23T09:25:34.398Z,78656.00
2022-09-23T09:26:34.032Z,76512.00
2022-09-23T09:28:34.003Z,77216.00
2022-09-23T09:29:35.743Z,80288.00
2022-09-23T09:30:33.979Z,86144.00
2022-09-23T09:31:33.997Z,89280.00
2022-09-23T09:32:33.958Z,87040.00
2022-09-23T09:33:33.949Z,86720.00
2022-09-23T09:34:33.956Z,90720.00
2022-09-23T09:35:33.918Z,85088.00
2022-09-23T09:36:33.909Z,82304.00
2022-09-23T09:37:33.899Z,84352.00
2022-09-23T09:39:33.874Z,87840.00
2022-09-23T09:40:33.933Z,83168.00
2022-09-23T09:41:33.851Z,82016.00
2022-09-23T09:42:33.840Z,86816.00
2022-09-23T09:43:33.827Z,79264.00
2022-09-23T09:44:33.823Z,76864.00
2022-09-23T09:45:33.801Z,75808.00
2022-09-23T09:46:33.849Z,71040.00
2022-09-23T09:47:33.777Z,73312.00
2022-09-23T09:48:33.766Z,73344.00
2022-09-23T09:50:33.878Z,74624.00
2022-09-23T09:51:33.727Z,69408.00
2022-09-23T09:52:33.717Z,71840.00
2022-09-23T09:53:33.649Z,69792.00
2022-09-23T09:54:33.640Z,77536.00
2022-09-23T09:55:33.625Z,74208.00
2022-09-23T09:56:33.669Z,76576.00
2022-09-23T09:57:35.927Z,85216.00
2022-09-23T09:58:33.590Z,84832.00
2022-09-23T09:59:33.586Z,82592.00
2022-09-23T10:01:33.596Z,85376.00
2022-09-23T10:02:33.549Z,85760.00
2022-09-23T10:03:33.531Z,83968.00
2022-09-23T10:04:33.603Z,81440.00
2022-09-23T10:05:33.506Z,80960.00
2022-09-23T10:06:33.520Z,82944.00
2022-09-23T10:07:33.483Z,81120.00
2022-09-23T10:08:33.474Z,81248.00
2022-09-23T10:09:33.460Z,79872.00
2022-09-23T10:10:33.942Z,76864.00
2022-09-23T10:12:33.426Z,76000.00
2022-09-23T10:13:33.413Z,79616.00
2022-09-23T10:14:33.415Z,77856.00
2022-09-23T10:15:33.391Z,72416.00
2022-09-23T10:16:33.454Z,73632.00
2022-09-23T10:17:33.368Z,76000.00
2022-09-23T10:18:33.358Z,80064.00
2022-09-23T10:19:33.344Z,78144.00
2022-09-23T10:20:33.333Z,72064.00
2022-09-23T10:21:33.326Z,74080.00
2022-09-23T10:23:33.310Z,65376.00
2022-09-23T10:24:33.288Z,53152.00
2022-09-23T10:25:33.277Z,55168.00
2022-09-23T10:26:33.266Z,46304.00
2022-09-23T10:27:33.253Z,49856.00
2022-09-23T10:28:33.243Z,47232.00
2022-09-23T10:29:33.232Z,53952.00
2022-09-23T10:30:33.267Z,49984.00
2022-09-23T10:31:33.211Z,42304.00
2022-09-23T10:32:33.197Z,44928.00
2022-09-23T10:34:33.171Z,50368.00
2022-09-23T10:35:33.158Z,51392.00
2022-09-23T10:36:33.161Z,55008.00
2022-09-23T10:37:33.143Z,56512.00
2022-09-23T10:38:33.263Z,53088.00
2022-09-23T10:39:33.113Z,43616.00
2022-09-23T10:40:33.150Z,55072.00
2022-09-23T10:41:33.090Z,49984.00
2022-09-23T10:42:33.081Z,50336.00
2022-09-23T10:43:33.069Z,54592.00
2022-09-23T10:45:33.040Z,55584.00
2022-09-23T10:46:33.095Z,48128.00
2022-09-23T10:47:33.018Z,49408.00
2022-09-23T10:48:33.012Z,49408.00
2022-09-23T10:49:32.993Z,58656.00
2022-09-23T10:50:32.983Z,62176.00
2022-09-23T10:51:32.969Z,64864.00
2022-09-23T10:52:32.959Z,61952.00
2022-09-23T10:53:32.945Z,60064.00
2022-09-23T10:54:32.957Z,64640.00
2022-09-23T10:56:32.912Z,70528.00
2022-09-23T10:57:32.900Z,69184.00
2022-09-23T10:58:32.889Z,67648.00
2022-09-23T10:59:32.877Z,72288.00
2022-09-23T11:00:32.867Z,69792.00
2022-09-23T11:01:32.959Z,64288.00
2022-09-23T11:02:32.843Z,60192.00
2022-09-23T11:03:32.830Z,63008.00
2022-09-23T11:04:32.895Z,60768.00
2022-09-23T11:05:32.807Z,58400.00
2022-09-23T11:07:36.837Z,58272.00
2022-09-23T11:08:32.774Z,65920.00
2022-09-23T11:09:32.762Z,69856.00
2022-09-23T11:10:47.552Z,69088.00
2022-09-23T11:11:34.740Z,63136.00
2022-09-23T11:12:32.731Z,64896.00
2022-09-23T11:13:32.719Z,63584.00
2022-09-23T11:14:32.719Z,64736.00
2022-09-23T11:15:32.696Z,65664.00
2022-09-23T11:16:32.768Z,68160.00
2022-09-23T11:18:32.670Z,64288.00
2022-09-23T11:19:32.652Z,59424.00
2022-09-23T11:20:32.637Z,56832.00
2022-09-23T11:21:32.627Z,52672.00
2022-09-23T11:22:32.619Z,49120.00
2022-09-23T11:23:32.607Z,48288.00
2022-09-23T11:24:32.593Z,51808.00
2022-09-23T11:25:32.584Z,51104.00
2022-09-23T11:26:33.406Z,50304.00
2022-09-23T11:27:32.561Z,54144.00
2022-09-23T11:29:32.536Z,60608.00
2022-09-23T11:30:32.577Z,61312.00
2022-09-23T11:31:32.518Z,59808.00
2022-09-23T11:32:32.504Z,63552.00
2022-09-23T11:33:32.490Z,61440.00
2022-09-23T11:34:32.480Z,53472.00
2022-09-23T11:35:32.467Z,53056.00
2022-09-23T11:36:32.455Z,56416.00
2022-09-23T11:37:32.441Z,56864.00
2022-09-23T11:38:32.432Z,59776.00
2022-09-23T11:40:32.516Z,58912.00
2022-09-23T11:41:32.401Z,56512.00
2022-09-23T11:42:32.419Z,52800.00
2022-09-23T11:43:32.373Z,50624.00
2022-09-23T11:44:32.366Z,51968.00
2022-09-23T11:45:32.412Z,55520.00
2022-09-23T11:46:32.338Z,52160.00
2022-09-23T11:47:35.309Z,57088.00
2022-09-23T11:48:32.315Z,55456.00
2022-09-23T11:49:32.302Z,52640.00
2022-09-23T11:51:32.278Z,59840.00
2022-09-23T11:52:32.267Z,55392.00
2022-09-23T11:53:32.256Z,57376.00
2022-09-23T11:54:32.242Z,59456.00
2022-09-23T11:55:32.236Z,61728.00
2022-09-23T11:56:35.994Z,61888.00
2022-09-23T11:57:43.840Z,61888.00
2022-09-23T11:58:32.310Z,60864.00
2022-09-23T11:59:39.565Z,60608.00
2022-09-23T12:00:32.175Z,61024.00
2022-09-23T12:02:32.260Z,60992.00
2022-09-23T12:03:42.441Z,55616.00
2022-09-23T12:04:32.234Z,51584.00
2022-09-23T12:05:32.317Z,52288.00
2022-09-23T12:06:32.106Z,53664.00
2022-09-23T12:07:32.097Z,55552.00
2022-09-23T12:08:32.087Z,57504.00
2022-09-23T12:09:56.843Z,60512.00
2022-09-23T12:10:32.063Z,62208.00
2022-09-23T12:11:32.054Z,55584.00
2022-09-23T12:13:32.031Z,54368.00
2022-09-23T12:14:32.042Z,49024.00
2022-09-23T12:15:32.014Z,45856.00
2022-09-23T12:16:32.101Z,30752.00
2022-09-23T12:17:31.986Z,39392.00
2022-09-23T12:18:31.974Z,59168.00
2022-09-23T12:19:31.964Z,65856.00
2022-09-23T12:20:31.951Z,71232.00
2022-09-23T12:21:50.286Z,73728.00
2022-09-23T12:23:31.919Z,72576.00
2022-09-23T12:24:31.907Z,70016.00
2022-09-23T12:25:31.897Z,67264.00
2022-09-23T12:26:31.883Z,66240.00
2022-09-23T12:27:31.877Z,65696.00
2022-09-23T12:28:31.863Z,62560.00
2022-09-23T12:29:31.851Z,63072.00
2022-09-23T12:30:31.906Z,63712.00
2022-09-23T12:31:33.088Z,62976.00
2022-09-23T12:32:31.814Z,49952.00
2022-09-23T12:34:31.797Z,58368.00
2022-09-23T12:35:31.780Z,61088.00
2022-09-23T12:36:31.768Z,53760.00
2022-09-23T12:37:31.759Z,49664.00
2022-09-23T12:38:31.745Z,50336.00
2022-09-23T12:39:31.736Z,49504.00
2022-09-23T12:40:31.818Z,54432.00
2022-09-23T12:41:31.713Z,54048.00
2022-09-23T12:42:31.699Z,55520.00
2022-09-23T12:43:31.701Z,56480.00
2022-09-23T12:45:31.672Z,52864.00
2022-09-23T12:46:31.678Z,56544.00
2022-09-23T12:47:31.643Z,45472.00
2022-09-23T12:48:31.630Z,37376.00
2022-09-23T12:49:31.621Z,39296.00
2022-09-23T12:50:31.609Z,47680.00
2022-09-23T12:51:31.598Z,51968.00
2022-09-23T12:52:31.613Z,55488.00
2022-09-23T12:53:31.575Z,56416.00
2022-09-23T12:54:31.563Z,54848.00
2022-09-23T12:56:31.539Z,48864.00
2022-09-23T12:57:31.533Z,49600.00
2022-09-23T12:58:31.518Z,51584.00
2022-09-23T12:59:31.507Z,48256.00
2022-09-23T13:00:34.217Z,48544.00
2022-09-23T13:01:31.612Z,52864.00
2022-09-23T13:02:31.598Z,47584.00
2022-09-23T13:03:31.463Z,53248.00
2022-09-23T13:04:31.450Z,36832.00
2022-09-23T13:05:31.440Z,47136.00
2022-09-23T13:07:31.419Z,50720.00
2022-09-23T13:08:31.406Z,49856.00
2022-09-23T13:09:31.397Z,50016.00
2022-09-23T13:10:31.386Z,52544.00
2022-09-23T13:11:31.376Z,51008.00
2022-09-23T13:12:31.360Z,47200.00
2022-09-23T13:13:31.350Z,49952.00
2022-09-23T13:14:31.337Z,52416.00
2022-09-23T13:15:31.330Z,51040.00
2022-09-23T13:16:31.436Z,48352.00
2022-09-23T13:18:31.380Z,47520.00
2022-09-23T13:19:35.349Z,44704.00
2022-09-23T13:20:31.266Z,38656.00
2022-09-23T13:21:31.257Z,31264.00
2022-09-23T13:22:31.244Z,32384.00
2022-09-23T13:23:31.243Z,32736.00
2022-09-23T13:24:31.286Z,30944.00
2022-09-23T13:25:31.208Z,29280.00
2022-09-23T13:26:31.194Z,28128.00
2022-09-23T13:27:31.195Z,28416.00
2022-09-23T13:29:31.163Z,27392.00
2022-09-23T13:30:31.148Z,30528.00
2022-09-23T13:31:31.214Z,32032.00
2022-09-23T13:32:31.123Z,23136.00
2022-09-23T13:33:31.113Z,19296.00
2022-09-23T13:34:31.122Z,27648.00